Time;durP1;ratioP1;P1;durP2;ratioP2;P2;SDS_P1;SDS_P2;PMS_P1;PMS_P2;Temp;Humidity;BMP_temperature;BMP_pressure;BME280_temperature;BME280_humidity;BME280_pressure;Samples;Min_cycle;Max_cycle;Signal;HPM_P1;HPM_P2
2022/07/01 00:00:31;;;;;;;2.43;2.07;;;15.40;99.90;;;;;;5072371;28;20215;-70
2022/07/01 00:02:57;;;;;;;2.93;2.43;;;15.40;99.90;;;;;;5071087;28;20405;-71
2022/07/01 00:05:23;;;;;;;3.70;2.67;;;15.50;99.90;;;;;;5071976;28;20158;-71
2022/07/01 00:07:48;;;;;;;2.20;2.00;;;15.50;99.90;;;;;;5072223;28;20200;-71
2022/07/01 00:10:15;;;;;;;2.97;2.50;;;15.50;99.90;;;;;;5072216;28;20236;-71
2022/07/01 00:12:40;;;;;;;7.07;3.10;;;15.40;99.90;;;;;;5071753;28;20183;-70
2022/07/01 00:15:07;;;;;;;4.13;2.80;;;15.40;99.90;;;;;;5071320;28;20408;-71
2022/07/01 00:17:33;;;;;;;4.10;2.97;;;15.50;99.90;;;;;;5071648;28;20198;-71
2022/07/01 00:19:59;;;;;;;3.87;2.83;;;15.40;99.90;;;;;;5071971;28;20792;-71
2022/07/01 00:22:27;;;;;;;2.50;1.97;;;15.40;99.90;;;;;;5070749;28;20508;-72
2022/07/01 00:24:53;;;;;;;2.63;2.30;;;15.40;99.90;;;;;;5071888;28;20190;-70
2022/07/01 00:27:18;;;;;;;2.50;2.30;;;15.40;99.90;;;;;;5070599;28;20447;-70
2022/07/01 00:29:44;;;;;;;2.20;1.70;;;15.40;99.90;;;;;;5070602;28;20552;-71
2022/07/01 00:32:10;;;;;;;3.27;2.50;;;15.40;99.90;;;;;;5071774;28;20171;-70
2022/07/01 00:34:35;;;;;;;3.43;2.53;;;15.40;99.90;;;;;;5071129;28;20619;-70
2022/07/01 00:37:01;;;;;;;2.90;2.43;;;15.50;99.90;;;;;;5071382;28;20174;-70
2022/07/01 00:39:26;;;;;;;3.00;1.90;;;15.50;99.90;;;;;;5070114;28;20269;-69
2022/07/01 00:41:52;;;;;;;3.03;2.40;;;15.50;99.90;;;;;;5071432;28;20216;-70
2022/07/01 00:44:19;;;;;;;4.03;2.57;;;15.50;99.90;;;;;;5071123;28;20162;-69
2022/07/01 00:46:46;;;;;;;4.47;1.83;;;15.60;99.90;;;;;;5071680;28;20657;-71
2022/07/01 00:49:12;;;;;;;4.00;2.47;;;15.60;99.90;;;;;;5071685;28;20421;-71
2022/07/01 00:51:37;;;;;;;3.60;2.77;;;15.60;99.90;;;;;;5074019;28;20453;-70
2022/07/01 00:54:03;;;;;;;2.97;2.53;;;15.60;99.90;;;;;;5075115;28;20250;-70
2022/07/01 00:56:29;;;;;;;3.27;2.30;;;15.60;99.90;;;;;;5075071;28;20174;-71
2022/07/01 00:58:55;;;;;;;4.70;2.80;;;15.60;99.90;;;;;;5075174;28;20251;-71
2022/07/01 01:01:22;;;;;;;4.53;2.70;;;15.60;99.90;;;;;;5075246;28;20166;-71
2022/07/01 01:03:48;;;;;;;5.57;3.40;;;15.60;99.90;;;;;;5075042;28;20397;-70
2022/07/01 01:06:15;;;;;;;4.20;3.03;;;15.60;99.90;;;;;;5074939;28;20426;-70
2022/07/01 01:08:41;;;;;;;4.50;2.83;;;15.60;99.90;;;;;;5074694;28;20420;-69
2022/07/01 01:11:07;;;;;;;3.97;2.57;;;15.60;99.90;;;;;;5074433;28;20431;-69
2022/07/01 01:13:33;;;;;;;6.10;3.90;;;15.60;99.90;;;;;;5074534;28;20400;-71
2022/07/01 01:15:58;;;;;;;4.53;2.73;;;15.50;99.90;;;;;;5074610;28;20170;-71
2022/07/01 01:18:24;;;;;;;5.27;2.60;;;15.50;99.90;;;;;;5074556;28;20206;-70
2022/07/01 01:20:52;;;;;;;5.10;3.57;;;15.50;99.90;;;;;;5074390;28;20170;-70
2022/07/01 01:23:18;;;;;;;3.63;2.80;;;15.40;99.90;;;;;;5074249;28;20163;-70
2022/07/01 01:25:46;;;;;;;5.47;3.37;;;15.40;99.90;;;;;;5074410;28;20438;-71
2022/07/01 01:28:12;;;;;;;3.83;2.70;;;15.30;99.90;;;;;;5074646;28;20186;-71
2022/07/01 01:30:37;;;;;;;5.10;3.20;;;15.30;99.90;;;;;;5074649;28;20439;-71
2022/07/01 01:33:03;;;;;;;2.70;2.30;;;15.30;99.90;;;;;;5074573;28;20633;-70
2022/07/01 01:35:29;;;;;;;5.00;3.20;;;15.30;99.90;;;;;;5074441;28;20163;-70
2022/07/01 01:37:54;;;;;;;4.60;3.17;;;15.30;99.90;;;;;;5073306;28;20624;-69
2022/07/01 01:40:20;;;;;;;5.40;3.63;;;15.30;99.90;;;;;;5074532;28;20189;-71
2022/07/01 01:42:46;;;;;;;4.03;2.63;;;15.30;99.90;;;;;;5074210;28;20237;-70
2022/07/01 01:45:11;;;;;;;5.73;3.03;;;15.30;99.90;;;;;;5074021;28;20186;-70
2022/07/01 01:47:37;;;;;;;2.77;2.50;;;15.20;99.90;;;;;;5073946;28;20904;-71
2022/07/01 01:50:08;;;;;;;3.63;3.30;;;15.20;99.90;;;;;;5074312;28;20583;-71
2022/07/01 01:52:33;;;;;;;3.27;2.30;;;15.20;99.90;;;;;;5074027;28;20491;-69
2022/07/01 01:55:00;;;;;;;2.47;2.27;;;15.20;99.90;;;;;;5073120;28;20874;-69
2022/07/01 01:57:25;;;;;;;7.63;2.60;;;15.20;99.90;;;;;;5073342;28;20263;-69
2022/07/01 01:59:51;;;;;;;3.00;2.70;;;15.10;99.90;;;;;;5073408;28;20405;-69
2022/07/01 02:02:16;;;;;;;3.33;2.57;;;15.10;99.90;;;;;;5072313;28;20551;-69
2022/07/01 02:04:42;;;;;;;4.47;1.87;;;15.00;99.90;;;;;;5073106;28;20163;-69
2022/07/01 02:07:08;;;;;;;3.17;2.53;;;14.90;99.90;;;;;;5072116;28;20170;-69
2022/07/01 02:09:33;;;;;;;2.40;1.67;;;14.90;99.90;;;;;;5073085;28;20645;-70
2022/07/01 02:11:59;;;;;;;4.00;2.13;;;14.80;99.90;;;;;;5073216;28;20170;-70
2022/07/01 02:14:24;;;;;;;5.90;2.10;;;14.80;99.90;;;;;;5072889;28;20162;-69
2022/07/01 02:16:50;;;;;;;2.50;2.30;;;14.80;99.90;;;;;;5073096;28;20167;-69
2022/07/01 02:19:15;;;;;;;2.03;1.80;;;14.80;99.90;;;;;;5072882;28;20288;-70
2022/07/01 02:21:41;;;;;;;2.50;2.30;;;14.80;99.90;;;;;;5072843;28;20162;-71
2022/07/01 02:24:07;;;;;;;2.10;1.57;;;14.80;99.90;;;;;;5072953;28;20166;-70
2022/07/01 02:26:33;;;;;;;2.70;2.13;;;14.80;99.90;;;;;;5071922;28;20173;-70
2022/07/01 02:28:58;;;;;;;4.37;2.57;;;14.70;99.90;;;;;;5073222;28;20436;-71
2022/07/01 02:31:24;;;;;;;8.07;1.73;;;14.80;99.90;;;;;;5071803;28;20185;-70
2022/07/01 02:33:49;;;;;;;3.10;2.33;;;14.80;99.90;;;;;;5073241;28;20538;-69
2022/07/01 02:36:15;;;;;;;2.27;1.60;;;14.70;99.90;;;;;;5071517;28;20184;-71
2022/07/01 02:38:41;;;;;;;2.20;1.70;;;14.70;99.90;;;;;;5072912;28;20220;-71
2022/07/01 02:41:06;;;;;;;1.93;1.30;;;14.70;99.90;;;;;;5073065;28;20610;-71
2022/07/01 02:43:32;;;;;;;3.53;1.20;;;14.70;99.90;;;;;;5073211;28;20173;-70
2022/07/01 02:45:58;;;;;;;2.17;1.83;;;14.60;99.90;;;;;;5071570;28;20205;-71
2022/07/01 02:48:23;;;;;;;3.23;2.00;;;14.70;99.90;;;;;;5072998;28;20247;-71
2022/07/01 02:50:49;;;;;;;6.43;1.90;;;14.70;99.90;;;;;;5073244;28;20416;-71
2022/07/01 02:53:14;;;;;;;3.30;1.77;;;14.70;99.90;;;;;;5071104;28;20189;-70
2022/07/01 02:55:40;;;;;;;1.63;1.33;;;14.60;99.90;;;;;;5072642;28;20525;-70
2022/07/01 02:58:05;;;;;;;1.33;1.23;;;14.60;99.90;;;;;;5072910;28;20229;-71
2022/07/01 03:00:31;;;;;;;2.03;1.80;;;14.60;99.90;;;;;;5072838;28;20163;-71
2022/07/01 03:02:57;;;;;;;2.60;1.37;;;14.60;99.90;;;;;;5071100;28;20257;-70
2022/07/01 03:05:22;;;;;;;2.73;1.40;;;14.60;99.90;;;;;;5071885;28;20166;-70
2022/07/01 03:07:48;;;;;;;1.60;1.20;;;14.60;99.90;;;;;;5072330;28;20190;-70
2022/07/01 03:10:14;;;;;;;2.00;1.53;;;14.60;99.90;;;;;;5072518;28;20185;-70
2022/07/01 03:12:40;;;;;;;2.20;1.70;;;14.60;99.90;;;;;;5072591;28;20256;-70
2022/07/01 03:15:07;;;;;;;1.47;1.10;;;14.60;99.90;;;;;;5071713;28;20231;-71
2022/07/01 03:17:35;;;;;;;1.30;1.00;;;14.50;99.90;;;;;;5072244;28;20487;-69
2022/07/01 03:20:02;;;;;;;2.47;2.27;;;14.50;99.90;;;;;;5072153;28;20448;-69
2022/07/01 03:22:30;;;;;;;1.70;1.33;;;14.40;99.90;;;;;;5072214;28;20907;-69
2022/07/01 03:24:55;;;;;;;1.93;1.63;;;14.50;99.90;;;;;;5070182;28;20416;-70
2022/07/01 03:27:22;;;;;;;1.77;1.17;;;14.50;99.90;;;;;;5071879;28;20915;-69
2022/07/01 03:29:48;;;;;;;5.67;1.77;;;14.40;99.90;;;;;;5072052;28;20201;-70
2022/07/01 03:32:14;;;;;;;1.57;1.43;;;14.50;99.90;;;;;;5071883;28;20408;-69
2022/07/01 03:34:42;;;;;;;1.70;1.60;;;14.50;99.90;;;;;;5071676;28;20503;-70
2022/07/01 03:37:10;;;;;;;2.33;1.57;;;14.40;99.90;;;;;;5071868;28;20400;-70
2022/07/01 03:39:37;;;;;;;1.40;1.17;;;14.40;99.90;;;;;;5071776;28;20424;-69
2022/07/01 03:42:04;;;;;;;1.83;1.53;;;14.40;99.90;;;;;;5071937;28;20404;-69
2022/07/01 03:44:29;;;;;;;1.53;1.00;;;14.40;99.90;;;;;;5071505;28;20404;-69
2022/07/01 03:46:55;;;;;;;1.63;1.33;;;14.30;99.90;;;;;;5071647;28;20403;-69
2022/07/01 03:49:22;;;;;;;1.20;1.00;;;14.40;99.90;;;;;;5071628;28;20193;-70
2022/07/01 03:51:48;;;;;;;2.03;1.50;;;14.40;99.90;;;;;;5071764;28;20408;-70
2022/07/01 03:57:08;;;;;;;1.90;1.17;;;14.40;99.90;;;;;;5071889;28;20548;-69
2022/07/01 03:59:37;;;;;;;1.63;1.27;;;14.40;99.90;;;;;;5071584;28;20478;-69
2022/07/01 04:02:04;;;;;;;1.40;1.13;;;14.40;99.90;;;;;;5071685;28;20412;-70
2022/07/01 04:04:30;;;;;;;1.53;1.17;;;14.40;99.90;;;;;;5071355;28;20508;-69
2022/07/01 04:06:58;;;;;;;3.23;1.63;;;14.50;99.90;;;;;;5071614;28;20439;-69
2022/07/01 04:09:24;;;;;;;1.63;1.40;;;14.40;99.90;;;;;;5070202;28;21180;-70
2022/07/01 04:11:51;;;;;;;1.77;1.30;;;14.50;99.90;;;;;;5071595;28;20413;-70
2022/07/01 04:14:16;;;;;;;1.87;1.53;;;14.50;99.90;;;;;;5071258;28;20498;-69
2022/07/01 04:16:44;;;;;;;2.27;1.40;;;14.50;99.90;;;;;;5071465;28;21138;-69
2022/07/01 04:19:10;;;;;;;2.20;1.10;;;14.50;99.90;;;;;;5071495;28;20600;-70
2022/07/01 04:24:20;;;;;;;1.43;1.23;;;14.60;99.90;;;;;;5071220;28;20403;-70
2022/07/01 04:26:45;;;;;;;1.87;1.40;;;14.70;99.90;;;;;;5073887;28;20875;-70
2022/07/01 04:29:11;;;;;;;1.93;0.90;;;14.80;99.90;;;;;;5075169;28;20700;-70
2022/07/01 04:31:38;;;;;;;1.80;1.53;;;14.80;99.90;;;;;;5075252;28;20308;-70
2022/07/01 04:34:05;;;;;;;3.80;1.50;;;14.80;99.90;;;;;;5075214;28;20525;-70
2022/07/01 04:36:31;;;;;;;1.80;1.50;;;14.80;99.90;;;;;;5074778;28;20462;-70
2022/07/01 04:38:57;;;;;;;1.20;1.03;;;14.90;99.90;;;;;;5074934;28;20459;-71
2022/07/01 04:44:07;;;;;;;1.30;1.20;;;14.90;99.90;;;;;;5075007;28;20910;-70
2022/07/01 04:46:33;;;;;;;1.50;1.37;;;14.90;99.90;;;;;;5075003;28;20389;-72
2022/07/01 04:48:59;;;;;;;2.27;2.07;;;15.00;99.90;;;;;;5075001;28;20508;-71
2022/07/01 04:51:24;;;;;;;1.70;1.30;;;15.00;99.90;;;;;;5074821;28;20563;-71
2022/07/01 04:53:50;;;;;;;1.50;1.27;;;15.00;99.90;;;;;;5074745;28;20190;-71
2022/07/01 04:56:16;;;;;;;1.67;1.20;;;15.00;99.90;;;;;;5074677;28;20699;-70
2022/07/01 04:58:41;;;;;;;2.80;1.80;;;15.00;99.90;;;;;;5074545;28;20205;-70
2022/07/01 05:01:07;;;;;;;1.60;1.37;;;15.00;99.90;;;;;;5074659;28;20194;-70
2022/07/01 05:03:32;;;;;;;1.30;1.20;;;15.00;99.90;;;;;;5073332;28;20166;-70
2022/07/01 05:05:58;;;;;;;2.73;1.40;;;15.00;99.90;;;;;;5074218;28;20224;-70
2022/07/01 05:08:24;;;;;;;1.53;1.30;;;15.00;99.90;;;;;;5074383;28;20269;-70
2022/07/01 05:10:49;;;;;;;1.17;1.07;;;15.00;99.90;;;;;;5074452;28;20180;-70
2022/07/01 05:13:15;;;;;;;1.67;1.30;;;15.10;99.90;;;;;;5074465;28;20240;-70
2022/07/01 05:15:41;;;;;;;2.17;1.47;;;15.20;99.90;;;;;;5074067;28;20166;-70
2022/07/01 05:23:35;;;;;;;2.27;1.97;;;15.60;99.90;;;;;;5074241;28;20403;-71
2022/07/01 05:26:01;;;;;;;1.77;1.67;;;15.80;99.90;;;;;;5075064;28;20829;-71
2022/07/01 05:28:27;;;;;;;6.50;3.00;;;16.00;99.90;;;;;;5075151;28;20477;-71
2022/07/01 05:30:52;;;;;;;2.90;2.37;;;16.10;99.90;;;;;;5075629;28;20481;-72
2022/07/01 05:33:19;;;;;;;3.63;2.10;;;16.20;99.90;;;;;;5075663;28;20205;-71
2022/07/01 05:35:44;;;;;;;1.60;1.37;;;16.40;99.90;;;;;;5074584;28;20698;-71
2022/07/01 05:38:10;;;;;;;4.60;2.57;;;16.40;99.90;;;;;;5073637;28;20459;-72
2022/07/01 05:40:35;;;;;;;2.97;1.53;;;16.50;99.90;;;;;;5074070;28;20196;-71
2022/07/01 05:43:01;;;;;;;3.47;1.90;;;16.50;99.90;;;;;;5073911;28;20549;-70
2022/07/01 05:45:26;;;;;;;2.20;1.53;;;16.60;99.90;;;;;;5073694;28;20215;-71
2022/07/01 05:47:52;;;;;;;1.70;1.60;;;16.60;99.90;;;;;;5072422;28;20610;-70
2022/07/01 05:50:17;;;;;;;2.60;2.00;;;16.60;99.90;;;;;;5073658;28;20174;-70
2022/07/01 05:52:44;;;;;;;1.70;1.60;;;16.60;99.90;;;;;;5073716;28;20534;-70
2022/07/01 05:55:10;;;;;;;1.87;1.37;;;16.60;99.90;;;;;;5073311;28;20189;-71
2022/07/01 05:57:36;;;;;;;1.57;1.23;;;16.70;99.90;;;;;;5074214;28;20491;-72
2022/07/01 06:00:02;;;;;;;2.17;1.73;;;16.80;99.90;;;;;;5073435;28;20412;-71
2022/07/01 06:02:28;;;;;;;3.00;1.97;;;17.00;99.90;;;;;;5073101;28;20499;-70
2022/07/01 06:04:53;;;;;;;1.47;1.37;;;17.20;99.90;;;;;;5073089;28;20895;-70
2022/07/01 06:07:19;;;;;;;1.80;1.60;;;17.40;99.90;;;;;;5073319;28;20252;-70
2022/07/01 06:09:45;;;;;;;1.87;1.60;;;17.60;99.90;;;;;;5072148;28;20219;-71
2022/07/01 06:12:11;;;;;;;1.70;1.40;;;17.80;99.90;;;;;;5073388;28;20535;-71
2022/07/01 06:14:37;;;;;;;1.97;1.77;;;17.90;99.90;;;;;;5072982;28;20397;-71
2022/07/01 06:17:04;;;;;;;9.77;2.80;;;18.10;99.90;;;;;;5073441;28;20165;-71
2022/07/01 06:19:29;;;;;;;1.50;1.40;;;18.20;99.90;;;;;;5073161;28;20794;-71
2022/07/01 06:21:55;;;;;;;1.90;1.70;;;18.30;99.90;;;;;;5073082;28;20407;-70
2022/07/01 06:24:21;;;;;;;1.40;1.10;;;18.50;99.90;;;;;;5072809;28;20188;-70
2022/07/01 06:26:48;;;;;;;4.23;1.33;;;18.70;99.90;;;;;;5073031;28;20408;-70
2022/07/01 06:29:13;;;;;;;2.03;1.93;;;18.90;99.90;;;;;;5072988;28;20198;-70
2022/07/01 06:31:39;;;;;;;1.30;1.10;;;19.20;99.90;;;;;;5072824;28;20966;-70
2022/07/01 06:34:04;;;;;;;2.87;1.83;;;19.80;99.90;;;;;;5072857;28;20189;-70
2022/07/01 06:36:30;;;;;;;2.27;1.93;;;20.60;99.90;;;;;;5072571;28;20184;-70
2022/07/01 06:38:55;;;;;;;1.50;1.17;;;21.00;99.90;;;;;;5072598;28;20269;-70
2022/07/01 06:41:27;;;;;;;4.10;1.33;;;21.20;99.90;;;;;;5072675;28;20585;-67
2022/07/01 06:43:57;;;;;;;1.27;1.13;;;21.30;99.90;;;;;;5072627;28;20166;-70
2022/07/01 06:46:23;;;;;;;1.30;1.20;;;21.30;99.90;;;;;;5072452;28;20404;-70
2022/07/01 06:48:49;;;;;;;1.47;1.37;;;21.20;99.90;;;;;;5071891;28;20515;-70
2022/07/01 06:51:14;;;;;;;1.30;1.00;;;21.10;99.90;;;;;;5072719;28;20174;-70
2022/07/01 06:53:40;;;;;;;1.40;1.30;;;20.90;99.90;;;;;;5072418;28;20194;-70
2022/07/01 06:56:05;;;;;;;1.40;1.30;;;20.80;99.90;;;;;;5072380;28;20189;-70
2022/07/01 06:58:31;;;;;;;1.70;1.27;;;20.70;99.90;;;;;;5072281;28;20201;-70
2022/07/01 07:00:57;;;;;;;1.37;1.20;;;20.60;99.90;;;;;;5072475;28;20257;-70
2022/07/01 07:03:22;;;;;;;1.93;1.30;;;20.60;99.90;;;;;;5072316;28;20640;-70
2022/07/01 07:05:48;;;;;;;1.63;1.53;;;20.50;99.90;;;;;;5072056;28;20491;-70
2022/07/01 07:08:14;;;;;;;1.30;1.17;;;20.60;99.90;;;;;;5072265;28;20194;-70
2022/07/01 07:10:40;;;;;;;2.13;1.30;;;20.60;99.90;;;;;;5072327;28;20444;-70
2022/07/01 07:13:05;;;;;;;2.77;1.60;;;20.90;99.90;;;;;;5072206;28;20533;-70
2022/07/01 07:15:31;;;;;;;1.40;1.10;;;21.20;99.90;;;;;;5070657;28;20833;-70
2022/07/01 07:17:57;;;;;;;1.70;1.20;;;21.40;99.90;;;;;;5071989;28;20202;-70
2022/07/01 07:20:24;;;;;;;2.83;1.10;;;21.50;99.90;;;;;;5072253;28;20267;-67
2022/07/01 07:22:50;;;;;;;1.60;1.20;;;21.50;99.90;;;;;;5072073;28;20405;-68
2022/07/01 07:25:16;;;;;;;1.97;1.77;;;21.40;99.90;;;;;;5070665;28;20412;-68
2022/07/01 07:27:45;;;;;;;1.93;1.83;;;21.30;99.90;;;;;;5072049;28;20272;-70
2022/07/01 07:30:12;;;;;;;1.33;1.20;;;21.30;99.90;;;;;;5070779;28;20428;-70
2022/07/01 07:32:37;;;;;;;2.17;1.20;;;21.40;99.90;;;;;;5070579;28;20907;-67
2022/07/01 07:35:03;;;;;;;2.03;1.40;;;21.40;99.90;;;;;;5071704;28;20421;-70
2022/07/01 07:37:32;;;;;;;1.53;1.43;;;21.40;99.90;;;;;;5071892;28;20267;-68
2022/07/01 07:39:58;;;;;;;2.17;1.90;;;21.60;99.90;;;;;;5072162;28;20660;-69
2022/07/01 07:42:23;;;;;;;2.80;1.53;;;21.70;99.90;;;;;;5071822;28;20423;-69
2022/07/01 07:44:49;;;;;;;1.60;1.50;;;21.80;99.90;;;;;;5071544;28;20412;-69
2022/07/01 07:47:14;;;;;;;2.03;1.90;;;21.90;99.90;;;;;;5071808;28;20171;-69
2022/07/01 07:49:40;;;;;;;1.80;1.60;;;22.00;99.90;;;;;;5071830;28;20185;-69
2022/07/01 07:52:06;;;;;;;1.60;1.50;;;22.90;99.90;;;;;;5070472;28;20174;-69
2022/07/01 07:54:31;;;;;;;3.30;1.87;;;24.30;99.90;;;;;;5071475;28;20221;-69
2022/07/01 07:56:57;;;;;;;1.60;1.50;;;26.40;99.90;;;;;;5071618;28;20202;-70
2022/07/01 07:59:22;;;;;;;3.07;2.80;;;28.60;99.90;;;;;;5071886;28;20206;-70
2022/07/01 08:01:48;;;;;;;1.87;1.70;;;29.20;97.20;;;;;;5075758;28;20199;-70
2022/07/01 08:04:13;;;;;;;1.60;1.50;;;29.00;89.90;;;;;;5075573;28;20186;-70
2022/07/01 08:06:39;;;;;;;1.70;1.60;;;28.60;73.70;;;;;;5075708;28;20681;-69
2022/07/01 08:09:06;;;;;;;2.33;1.60;;;27.90;75.60;;;;;;5075523;28;20190;-69
2022/07/01 08:11:32;;;;;;;1.77;1.67;;;27.70;83.30;;;;;;5075610;28;20166;-69
2022/07/01 08:13:57;;;;;;;2.23;1.73;;;28.10;92.60;;;;;;5074706;28;20990;-70
2022/07/01 08:16:23;;;;;;;2.70;1.80;;;28.70;94.40;;;;;;5075555;28;20482;-70
2022/07/01 08:18:49;;;;;;;2.60;2.17;;;30.40;89.10;;;;;;5075312;28;20228;-70
2022/07/01 08:21:14;;;;;;;2.10;1.80;;;32.50;80.90;;;;;;5075418;28;20170;-70
2022/07/01 08:23:40;;;;;;;3.20;2.40;;;33.20;64.40;;;;;;5075300;28;20174;-70
2022/07/01 08:26:06;;;;;;;1.50;1.30;;;33.80;58.50;;;;;;5073738;28;20232;-70
2022/07/01 08:28:31;;;;;;;1.40;1.30;;;34.50;51.90;;;;;;5075165;28;20216;-70
2022/07/01 08:30:57;;;;;;;2.47;1.63;;;35.20;47.50;;;;;;5075155;28;20232;-70
2022/07/01 08:33:22;;;;;;;3.23;2.30;;;35.70;47.20;;;;;;5073796;28;20625;-70
2022/07/01 08:35:48;;;;;;;1.60;1.50;;;35.50;47.40;;;;;;5074969;28;20652;-70
2022/07/01 08:38:14;;;;;;;1.20;1.03;;;34.70;46.80;;;;;;5074996;28;20290;-70
2022/07/01 08:40:40;;;;;;;3.23;1.60;;;33.90;48.00;;;;;;5074956;28;20171;-70
2022/07/01 08:43:06;;;;;;;2.30;2.10;;;33.90;45.60;;;;;;5074967;28;20178;-70
2022/07/01 08:45:37;;;;;;;1.87;1.40;;;33.40;46.60;;;;;;5074745;28;20408;-70
2022/07/01 08:48:05;;;;;;;1.53;1.43;;;32.80;45.20;;;;;;5074933;28;20424;-70
2022/07/01 08:50:35;;;;;;;1.60;1.50;;;32.20;45.10;;;;;;5074830;28;20407;-70
2022/07/01 08:53:00;;;;;;;1.37;1.27;;;32.00;46.60;;;;;;5074755;28;20480;-70
2022/07/01 08:55:26;;;;;;;1.50;1.30;;;32.60;48.30;;;;;;5074480;28;20487;-70
2022/07/01 08:57:52;;;;;;;2.27;1.40;;;33.20;47.90;;;;;;5074546;28;20293;-70
2022/07/01 09:00:18;;;;;;;1.50;1.30;;;33.60;46.60;;;;;;5074755;28;20186;-70
2022/07/01 09:02:59;;;;;;;1.37;1.20;;;33.60;46.00;;;;;;5074722;28;20590;-70
2022/07/01 09:05:26;;;;;;;2.33;1.50;;;33.50;45.10;;;;;;5075036;28;20437;-69
2022/07/01 09:07:57;;;;;;;1.73;1.30;;;33.10;44.60;;;;;;5074866;28;20425;-70
2022/07/01 09:10:23;;;;;;;1.83;1.70;;;32.50;44.50;;;;;;5074351;28;20419;-70
2022/07/01 09:12:49;;;;;;;3.13;1.77;;;32.00;45.30;;;;;;5073855;28;20419;-70
2022/07/01 09:15:31;;;;;;;1.70;1.50;;;31.60;46.00;;;;;;5074205;28;20775;-69
2022/07/01 09:18:12;;;;;;;2.17;1.97;;;31.10;47.20;;;;;;5074390;28;20252;-69
2022/07/01 09:20:41;;;;;;;3.60;2.00;;;30.60;47.00;;;;;;5073144;28;20499;-69
2022/07/01 09:23:10;;;;;;;1.70;1.60;;;30.10;48.40;;;;;;5074284;28;20779;-69
2022/07/01 09:25:37;;;;;;;1.40;1.20;;;30.00;48.20;;;;;;5072734;28;20451;-69
2022/07/01 09:28:15;;;;;;;1.80;1.43;;;30.40;48.40;;;;;;5074172;28;20965;-69
2022/07/01 09:30:43;;;;;;;1.93;1.20;;;31.50;49.80;;;;;;5074095;28;20404;-70
2022/07/01 09:33:18;;;;;;;1.67;1.57;;;32.50;46.00;;;;;;5072860;28;20421;-70
2022/07/01 09:35:46;;;;;;;1.60;1.50;;;32.70;45.00;;;;;;5073976;28;20400;-69
2022/07/01 09:38:15;;;;;;;1.70;1.60;;;32.40;45.60;;;;;;5073847;28;20463;-69
2022/07/01 09:40:57;;;;;;;2.57;1.63;;;31.90;45.20;;;;;;5074029;28;20763;-69
2022/07/01 09:43:25;;;;;;;2.10;1.30;;;31.50;46.90;;;;;;5072664;28;20854;-69
2022/07/01 09:45:52;;;;;;;2.17;1.97;;;31.10;47.80;;;;;;5073614;28;20493;-69
2022/07/01 09:48:18;;;;;;;1.70;1.60;;;30.90;47.70;;;;;;5072546;28;20432;-69
2022/07/01 09:50:45;;;;;;;1.80;1.50;;;32.20;50.20;;;;;;5073806;28;20431;-69
2022/07/01 09:53:10;;;;;;;1.63;1.37;;;33.20;49.00;;;;;;5073598;28;20257;-70
2022/07/01 09:55:36;;;;;;;1.80;1.70;;;34.00;47.50;;;;;;5073504;28;20436;-70
2022/07/01 09:58:02;;;;;;;1.63;1.53;;;34.50;46.10;;;;;;5073471;28;20201;-70
2022/07/01 10:00:31;;;;;;;4.20;1.97;;;34.70;44.20;;;;;;5073508;28;20450;-70
2022/07/01 10:02:59;;;;;;;1.37;1.27;;;35.30;44.00;;;;;;5073515;28;20249;-70
2022/07/01 10:05:26;;;;;;;2.07;1.60;;;35.80;42.10;;;;;;5073258;28;20397;-70
2022/07/01 10:08:16;;;;;;;1.80;1.70;;;36.60;40.90;;;;;;5073788;28;20467;-70
2022/07/01 10:10:49;;;;;;;1.43;1.10;;;38.70;41.40;;;;;;5073668;28;20492;-70
2022/07/01 10:13:17;;;;;;;1.97;1.40;;;41.20;37.10;;;;;;5073316;28;21130;-70
2022/07/01 10:15:45;;;;;;;2.03;1.60;;;43.00;32.80;;;;;;5073131;28;20409;-70
2022/07/01 10:18:25;;;;;;;1.60;1.50;;;44.60;30.70;;;;;;5073102;28;20456;-70
2022/07/01 10:20:52;;;;;;;1.43;1.33;;;45.50;29.20;;;;;;5073056;28;20408;-71
2022/07/01 10:23:21;;;;;;;3.27;1.70;;;46.50;28.70;;;;;;5072096;28;20396;-71
2022/07/01 10:25:53;;;;;;;2.40;1.50;;;46.60;29.10;;;;;;5072846;28;20406;-70
2022/07/01 10:28:38;;;;;;;1.63;1.53;;;45.60;28.20;;;;;;5072887;28;20428;-70
2022/07/01 10:31:07;;;;;;;1.47;1.37;;;43.90;28.10;;;;;;5072866;28;20371;-70
2022/07/01 10:33:41;;;;;;;1.40;1.20;;;42.50;29.00;;;;;;5072915;28;20487;-70
2022/07/01 10:36:21;;;;;;;1.53;1.40;;;41.80;30.10;;;;;;5072675;28;20967;-70
2022/07/01 10:39:13;;;;;;;3.13;1.50;;;40.80;30.30;;;;;;5072580;28;20448;-70
2022/07/01 10:41:55;;;;;;;2.43;1.73;;;39.60;31.30;;;;;;5072739;28;20392;-70
2022/07/01 10:44:23;;;;;;;1.90;1.80;;;38.70;32.90;;;;;;5072352;28;20407;-70
2022/07/01 10:46:58;;;;;;;2.13;1.93;;;39.50;34.60;;;;;;5072612;28;20409;-70
2022/07/01 10:49:36;;;;;;;2.77;1.47;;;40.70;33.70;;;;;;5071224;28;20424;-70
2022/07/01 10:52:12;;;;;;;3.67;1.70;;;42.10;32.10;;;;;;5072375;28;20439;-70
2022/07/01 10:54:48;;;;;;;2.10;1.90;;;42.90;31.10;;;;;;5109637;27;20516;-70
2022/07/01 10:57:19;;;;;;;1.83;1.73;;;44.30;29.60;;;;;;5109879;28;20391;-70
2022/07/01 10:59:50;;;;;;;1.80;1.70;;;44.70;29.70;;;;;;5089490;28;20359;-69
2022/07/01 11:02:24;;;;;;;1.97;1.83;;;44.60;29.00;;;;;;5089905;28;20743;-70
2022/07/01 11:04:55;;;;;;;1.73;1.63;;;43.70;28.50;;;;;;5089190;28;20395;-70
2022/07/01 11:07:24;;;;;;;1.97;1.87;;;42.60;29.00;;;;;;5089235;28;20388;-69
2022/07/01 11:09:50;;;;;;;1.40;1.30;;;41.40;29.50;;;;;;5089259;28;20483;-69
2022/07/01 11:12:16;;;;;;;1.43;1.33;;;41.00;30.50;;;;;;5088854;28;20479;-69
2022/07/01 11:14:42;;;;;;;1.63;1.50;;;41.20;31.30;;;;;;5088965;28;20166;-69
2022/07/01 11:17:09;;;;;;;3.77;1.77;;;42.50;31.20;;;;;;5089101;28;20416;-69
2022/07/01 11:19:35;;;;;;;2.17;1.40;;;42.30;29.80;;;;;;5089025;28;20430;-69
2022/07/01 11:22:02;;;;;;;1.60;1.33;;;42.10;29.80;;;;;;5089086;28;20451;-69
2022/07/01 11:24:28;;;;;;;1.93;1.47;;;41.80;29.50;;;;;;5088759;28;20766;-69
2022/07/01 11:27:07;;;;;;;1.47;1.37;;;41.00;29.50;;;;;;5089025;28;20453;-69
2022/07/01 11:29:33;;;;;;;1.10;1.00;;;40.30;28.80;;;;;;5088858;28;20386;-69
2022/07/01 11:31:59;;;;;;;1.50;1.37;;;40.00;29.00;;;;;;5088948;28;20411;-69
2022/07/01 11:34:28;;;;;;;1.27;1.17;;;40.00;29.00;;;;;;5088643;28;20443;-69
2022/07/01 11:39:41;;;;;;;1.10;1.00;;;39.70;30.30;;;;;;5089100;28;20403;-69
2022/07/01 11:42:08;;;;;;;1.80;1.10;;;40.30;32.80;;;;;;5088608;28;20433;-69
2022/07/01 11:44:40;;;;;;;1.97;1.67;;;41.80;30.80;;;;;;5088470;28;20400;-69
2022/07/01 11:47:08;;;;;;;1.37;1.27;;;43.20;28.20;;;;;;5088623;28;20420;-69
2022/07/01 11:49:34;;;;;;;2.97;1.40;;;44.60;26.50;;;;;;5087219;28;20436;-69
2022/07/01 11:52:02;;;;;;;1.40;1.30;;;46.00;26.90;;;;;;5088476;28;20378;-69
2022/07/01 11:54:28;;;;;;;2.37;1.40;;;47.20;25.80;;;;;;5087898;28;20470;-69
2022/07/01 11:56:54;;;;;;;3.20;1.47;;;48.10;24.80;;;;;;5088459;28;20379;-69
2022/07/01 11:59:20;;;;;;;1.30;1.20;;;49.00;24.80;;;;;;5088347;28;20186;-69
2022/07/01 12:01:53;;;;;;;2.40;1.40;;;48.70;24.70;;;;;;5088470;28;20690;-69
2022/07/01 12:04:19;;;;;;;1.40;1.20;;;49.10;25.90;;;;;;5083367;28;20170;-69
2022/07/01 12:06:47;;;;;;;1.60;1.10;;;49.30;24.60;;;;;;5074807;28;20429;-69
2022/07/01 12:09:17;;;;;;;3.27;1.10;;;48.00;24.40;;;;;;5074661;28;20460;-69
2022/07/01 12:11:47;;;;;;;1.30;1.20;;;46.40;24.90;;;;;;5074620;28;20871;-69
2022/07/01 12:14:25;;;;;;;2.23;1.63;;;46.10;25.70;;;;;;5074498;28;20427;-69
2022/07/01 12:17:08;;;;;;;1.73;1.20;;;45.70;25.80;;;;;;5074586;28;20382;-69
2022/07/01 12:19:42;;;;;;;2.53;1.20;;;44.40;25.80;;;;;;5074493;28;20395;-69
2022/07/01 12:22:13;;;;;;;2.03;1.20;;;42.80;26.20;;;;;;5074667;28;20446;-69
2022/07/01 12:24:39;;;;;;;1.30;1.00;;;41.40;27.30;;;;;;5074086;28;20419;-68
2022/07/01 12:27:06;;;;;;;2.10;1.00;;;40.80;28.40;;;;;;5074339;28;20375;-68
2022/07/01 12:29:48;;;;;;;4.33;1.13;;;40.50;29.20;;;;;;5074268;28;20420;-69
2022/07/01 12:32:22;;;;;;;1.53;1.10;;;41.80;29.60;;;;;;5074377;28;20378;-69
2022/07/01 12:34:59;;;;;;;1.30;1.10;;;42.70;28.90;;;;;;5074238;28;20491;-69
2022/07/01 12:37:33;;;;;;;1.27;1.17;;;42.30;27.80;;;;;;5074196;28;20395;-69
2022/07/01 12:40:21;;;;;;;2.23;1.10;;;42.60;28.40;;;;;;5074082;28;20998;-69
2022/07/01 12:42:47;;;;;;;1.70;1.60;;;43.00;27.00;;;;;;5068528;28;20423;-69
2022/07/01 12:45:15;;;;;;;2.07;1.87;;;44.10;27.50;;;;;;5073728;28;20401;-69
2022/07/01 12:47:46;;;;;;;2.13;1.30;;;45.70;27.20;;;;;;5073962;28;20190;-69
2022/07/01 12:50:17;;;;;;;1.43;1.30;;;47.00;25.20;;;;;;5073973;28;20400;-69
2022/07/01 12:52:59;;;;;;;2.47;1.57;;;46.70;24.10;;;;;;5074008;28;20483;-70
2022/07/01 12:55:26;;;;;;;2.10;1.77;;;45.20;25.00;;;;;;5073768;28;20428;-70
2022/07/01 12:57:54;;;;;;;1.13;1.03;;;44.30;25.30;;;;;;5073803;28;20424;-70
2022/07/01 13:00:22;;;;;;;1.30;1.10;;;43.60;25.10;;;;;;5073830;28;20375;-69
2022/07/01 13:02:51;;;;;;;1.20;1.00;;;42.60;24.90;;;;;;5073740;28;20435;-68
2022/07/01 13:05:17;;;;;;;1.10;1.00;;;41.50;26.40;;;;;;5073566;28;20383;-69